createdAt,value
2017-02-21T00:00:31.089Z,10.59
2017-02-21T00:01:40.552Z,10.6
2017-02-21T00:02:49.615Z,10.53
2017-02-21T00:03:59.368Z,10.55
2017-02-21T00:05:08.929Z,10.51
2017-02-21T00:06:18.679Z,10.6
2017-02-21T00:07:28.122Z,10.53
2017-02-21T00:08:37.734Z,10.56
2017-02-21T00:09:47.343Z,10.51
2017-02-21T00:10:56.631Z,10.51
2017-02-21T00:12:05.918Z,10.52
2017-02-21T00:13:15.499Z,10.45
2017-02-21T00:14:25.469Z,10.51
2017-02-21T00:15:35.085Z,10.44
2017-02-21T00:16:45.399Z,10.44
2017-02-21T00:17:54.901Z,10.47
2017-02-21T00:19:04.750Z,10.36
2017-02-21T00:20:14.231Z,10.34
2017-02-21T00:21:24.190Z,10.36
2017-02-21T00:22:32.984Z,10.36
2017-02-21T00:23:41.683Z,10.36
2017-02-21T00:24:51.162Z,10.32
2017-02-21T00:26:00.280Z,10.38
2017-02-21T00:27:09.378Z,10.34
2017-02-21T00:28:18.094Z,10.34
2017-02-21T00:29:27.233Z,10.36
2017-02-21T00:30:36.294Z,10.42
2017-02-21T00:31:45.743Z,10.36
2017-02-21T00:32:55.328Z,10.38
2017-02-21T00:34:05.163Z,10.23
2017-02-21T00:35:14.643Z,10.27
2017-02-21T00:36:24.122Z,10.36
2017-02-21T00:37:33.205Z,10.32
2017-02-21T00:38:43.432Z,10.23
2017-02-21T00:39:53.005Z,10.32
2017-02-21T00:41:02.160Z,10.29
2017-02-21T00:42:11.988Z,10.3
2017-02-21T00:43:21.444Z,10.27
2017-02-21T00:44:30.144Z,10.26
2017-02-21T00:45:40.077Z,10.26
2017-02-21T00:46:50.296Z,10.18
2017-02-21T00:48:00.158Z,10.25
2017-02-21T00:49:10.020Z,10.27
2017-02-21T00:50:19.538Z,10.17
2017-02-21T00:51:29.064Z,10.23
2017-02-21T00:52:39.287Z,10.15
2017-02-21T00:53:48.840Z,10.2
2017-02-21T00:54:57.910Z,10.14
2017-02-21T00:56:06.991Z,10.26
2017-02-21T00:57:15.688Z,10.27
2017-02-21T00:58:25.931Z,10.22
2017-02-21T00:59:35.003Z,10.2
2017-02-21T01:00:44.466Z,10.15
2017-02-21T01:01:54.492Z,10.22
2017-02-21T01:03:03.557Z,10.17
2017-02-21T01:04:13.102Z,10.17
2017-02-21T01:05:22.171Z,10.15
2017-02-21T01:06:32.077Z,10.14
2017-02-21T01:07:40.819Z,10.15
2017-02-21T01:08:50.303Z,10.22
2017-02-21T01:09:59.379Z,10.17
2017-02-21T01:11:08.833Z,10.15
2017-02-21T01:12:18.672Z,10.11
2017-02-21T01:13:27.742Z,10.15
2017-02-21T01:14:37.749Z,10.17
2017-02-21T01:15:48.010Z,10.15
2017-02-21T01:16:57.475Z,10.07
2017-02-21T01:18:07.325Z,10.17
2017-02-21T01:19:16.494Z,10.18
2017-02-21T01:20:26.045Z,10.08
2017-02-21T01:21:35.117Z,10.17
2017-02-21T01:22:44.202Z,9.97
2017-02-21T01:23:53.649Z,10.11
2017-02-21T01:25:03.124Z,10.05
2017-02-21T01:26:12.727Z,9.99
2017-02-21T01:27:22.213Z,9.94
2017-02-21T01:28:32.039Z,10.01
2017-02-21T01:29:41.113Z,10.04
2017-02-21T01:30:50.955Z,10.04
2017-02-21T01:32:00.032Z,10.04
2017-02-21T01:33:09.104Z,10.01
2017-02-21T01:34:18.545Z,10.02
2017-02-21T01:35:27.624Z,9.97
2017-02-21T01:36:37.086Z,10.01
2017-02-21T01:37:46.550Z,10.04
2017-02-21T01:38:56.004Z,10.02
2017-02-21T01:40:05.083Z,10.01
2017-02-21T01:41:13.783Z,10.08
2017-02-21T01:42:22.875Z,9.97
2017-02-21T01:43:32.707Z,9.97
2017-02-21T01:44:42.166Z,9.96
2017-02-21T01:45:51.253Z,9.94
2017-02-21T01:47:00.702Z,9.89
2017-02-21T01:48:09.816Z,9.83
2017-02-21T01:49:18.513Z,9.87
2017-02-21T01:50:27.595Z,9.84
2017-02-21T01:51:37.435Z,9.91
2017-02-21T01:52:46.523Z,9.87
2017-02-21T01:53:56.379Z,10.01
2017-02-21T01:55:06.223Z,9.84
2017-02-21T01:56:15.686Z,9.84
2017-02-21T01:57:24.371Z,9.86
2017-02-21T01:58:33.829Z,9.9
2017-02-21T01:59:43.287Z,9.93
2017-02-21T02:00:51.975Z,9.94
2017-02-21T02:02:01.046Z,9.87
2017-02-21T02:03:09.721Z,9.91
2017-02-21T02:04:19.171Z,9.89
2017-02-21T02:05:28.642Z,9.86
2017-02-21T02:06:38.092Z,9.93
2017-02-21T02:07:46.769Z,9.93
2017-02-21T02:08:55.869Z,9.97
2017-02-21T02:10:04.552Z,9.83
2017-02-21T02:11:13.622Z,9.91
2017-02-21T02:12:22.315Z,9.83
2017-02-21T02:13:30.992Z,9.89
2017-02-21T02:14:40.450Z,9.81
2017-02-21T02:15:50.308Z,9.83
2017-02-21T02:16:59.409Z,9.81
2017-02-21T02:18:08.547Z,9.84
2017-02-21T02:19:18.029Z,9.84
2017-02-21T02:20:27.106Z,9.89
2017-02-21T02:21:36.581Z,9.78
2017-02-21T02:22:45.663Z,9.81
2017-02-21T02:23:54.751Z,9.75
2017-02-21T02:25:04.203Z,9.79
2017-02-21T02:26:13.325Z,9.81
2017-02-21T02:27:23.157Z,9.83
2017-02-21T02:28:31.848Z,9.75
2017-02-21T02:29:41.304Z,9.76
2017-02-21T02:30:50.756Z,9.75
2017-02-21T02:31:59.475Z,9.75
2017-02-21T02:33:08.951Z,9.71
2017-02-21T02:34:18.026Z,9.71
2017-02-21T02:35:27.496Z,9.71
2017-02-21T02:36:37.336Z,9.64
2017-02-21T02:37:46.400Z,9.65
2017-02-21T02:38:56.248Z,9.65
2017-02-21T02:40:05.337Z,9.61
2017-02-21T02:41:14.809Z,9.58
2017-02-21T02:42:23.890Z,9.53
2017-02-21T02:43:32.955Z,9.5
2017-02-21T02:44:41.654Z,9.56
2017-02-21T02:45:50.739Z,9.57
2017-02-21T02:46:59.425Z,9.58
2017-02-21T02:48:09.255Z,9.53
2017-02-21T02:49:18.319Z,9.43
2017-02-21T02:50:27.788Z,9.39
2017-02-21T02:51:37.623Z,9.36
2017-02-21T02:52:47.454Z,9.39
2017-02-21T02:53:56.905Z,9.39
2017-02-21T02:55:06.367Z,9.35
2017-02-21T02:56:15.846Z,9.4
2017-02-21T02:57:24.921Z,9.42
2017-02-21T02:58:34.375Z,9.4
2017-02-21T02:59:43.056Z,9.33
2017-02-21T03:00:52.501Z,9.32
2017-02-21T03:02:01.969Z,9.28
2017-02-21T03:03:11.049Z,9.18
2017-02-21T03:04:20.106Z,9.31
2017-02-21T03:05:28.798Z,9.21
2017-02-21T03:06:37.871Z,9.28
2017-02-21T03:07:47.705Z,9.15
2017-02-21T03:08:57.150Z,9.08
2017-02-21T03:10:06.226Z,8.99
2017-02-21T03:11:15.691Z,8.91
2017-02-21T03:12:24.747Z,8.91
2017-02-21T03:13:34.588Z,8.8
2017-02-21T03:14:44.421Z,8.86
2017-02-21T03:15:53.500Z,8.84
2017-02-21T03:17:02.196Z,8.92
2017-02-21T03:18:11.266Z,8.87
2017-02-21T03:19:19.963Z,8.99
2017-02-21T03:20:29.798Z,9.13
2017-02-21T03:21:39.259Z,9.11
2017-02-21T03:22:48.313Z,9.14
2017-02-21T03:23:58.153Z,9.11
2017-02-21T03:25:07.614Z,9.02
2017-02-21T03:26:16.285Z,9.05
2017-02-21T03:27:25.744Z,8.96
2017-02-21T03:28:34.827Z,8.87
2017-02-21T03:29:43.514Z,8.94
2017-02-21T03:30:53.341Z,8.86
2017-02-21T03:32:02.404Z,8.87
2017-02-21T03:33:12.235Z,8.79
2017-02-21T03:34:22.081Z,8.83
2017-02-21T03:35:31.550Z,8.71
2017-02-21T03:36:41.396Z,8.7
2017-02-21T03:37:50.485Z,8.7
2017-02-21T03:38:59.196Z,8.7
2017-02-21T03:40:09.051Z,8.83
2017-02-21T03:41:17.735Z,8.81
2017-02-21T03:42:26.825Z,8.83
2017-02-21T03:43:36.692Z,8.86
2017-02-21T03:44:46.144Z,8.86
2017-02-21T03:45:55.975Z,8.83
2017-02-21T03:47:05.450Z,8.68
2017-02-21T03:48:14.895Z,8.7
2017-02-21T03:49:24.756Z,8.71
2017-02-21T03:50:33.858Z,8.73
2017-02-21T03:51:42.922Z,8.77
2017-02-21T03:52:52.396Z,8.8
2017-02-21T03:54:01.853Z,8.71
2017-02-21T03:55:11.305Z,8.73
2017-02-21T03:56:20.368Z,8.76
2017-02-21T03:57:29.443Z,8.66
2017-02-21T03:58:38.889Z,8.73
2017-02-21T03:59:48.350Z,8.73
2017-02-21T04:00:57.433Z,8.66
2017-02-21T04:02:06.885Z,8.65
2017-02-21T04:03:16.359Z,8.7
2017-02-21T04:04:25.430Z,8.66
2017-02-21T04:05:34.893Z,8.63
2017-02-21T04:06:43.966Z,8.61
2017-02-21T04:07:53.813Z,8.68
2017-02-21T04:09:03.262Z,8.73
2017-02-21T04:10:12.705Z,8.74
2017-02-21T04:11:21.783Z,8.76
2017-02-21T04:12:30.889Z,8.71
2017-02-21T04:13:39.577Z,8.76
2017-02-21T04:14:49.021Z,8.74
2017-02-21T04:15:58.859Z,8.74
2017-02-21T04:17:08.696Z,8.73
2017-02-21T04:18:18.518Z,8.73
2017-02-21T04:19:27.958Z,8.66
2017-02-21T04:20:37.038Z,8.62
2017-02-21T04:21:46.891Z,8.63
2017-02-21T04:22:56.351Z,8.61
2017-02-21T04:24:05.817Z,8.58
2017-02-21T04:25:15.264Z,8.56
2017-02-21T04:26:25.124Z,8.63
2017-02-21T04:27:34.582Z,8.48
2017-02-21T04:28:43.650Z,8.61
2017-02-21T04:29:53.119Z,8.48
2017-02-21T04:31:02.192Z,8.45
2017-02-21T04:32:11.254Z,8.41
2017-02-21T04:33:21.492Z,8.36
2017-02-21T04:34:30.577Z,8.38
2017-02-21T04:35:40.416Z,8.4
2017-02-21T04:36:49.485Z,8.38
2017-02-21T04:37:58.210Z,8.41
2017-02-21T04:39:07.290Z,8.4
2017-02-21T04:40:16.360Z,8.38
2017-02-21T04:41:25.800Z,8.4
2017-02-21T04:42:34.864Z,8.33
2017-02-21T04:43:44.341Z,8.19
2017-02-21T04:44:53.432Z,8.11
2017-02-21T04:46:02.510Z,8.2
2017-02-21T04:47:11.949Z,8.22
2017-02-21T04:48:21.781Z,8.22
2017-02-21T04:49:30.845Z,8.2
2017-02-21T04:50:39.904Z,8.33
2017-02-21T04:51:49.372Z,8.25
2017-02-21T04:52:58.828Z,8.12
2017-02-21T04:54:07.886Z,8.33
2017-02-21T04:55:16.579Z,8.33
2017-02-21T04:56:25.642Z,8.19
2017-02-21T04:57:35.108Z,8.16
2017-02-21T04:58:44.184Z,8.18
2017-02-21T04:59:54.016Z,8.2
2017-02-21T05:01:03.106Z,8.1
2017-02-21T05:02:12.187Z,8.08
2017-02-21T05:03:21.637Z,8.05
2017-02-21T05:04:30.706Z,8.04
2017-02-21T05:05:40.165Z,8.01
2017-02-21T05:06:50.003Z,7.9
2017-02-21T05:07:59.487Z,7.82
2017-02-21T05:09:08.561Z,7.85
2017-02-21T05:10:17.267Z,7.86
2017-02-21T05:11:27.097Z,7.79
2017-02-21T05:12:37.336Z,7.71
2017-02-21T05:13:46.799Z,7.6
2017-02-21T05:14:55.503Z,7.58
2017-02-21T05:16:05.342Z,7.48
2017-02-21T05:17:14.436Z,7.6
2017-02-21T05:18:23.518Z,7.67
2017-02-21T05:19:32.581Z,7.67
2017-02-21T05:20:41.652Z,7.69
2017-02-21T05:21:51.097Z,7.77
2017-02-21T05:23:00.189Z,7.85
2017-02-21T05:24:09.648Z,7.77
2017-02-21T05:25:18.720Z,7.72
2017-02-21T05:26:28.175Z,7.67
2017-02-21T05:27:37.660Z,7.69
2017-02-21T05:28:46.748Z,7.68
2017-02-21T05:29:55.435Z,7.68
2017-02-21T05:31:04.131Z,7.75
2017-02-21T05:32:13.582Z,7.68
2017-02-21T05:33:23.801Z,7.77
2017-02-21T05:34:33.265Z,7.68
2017-02-21T05:35:43.103Z,7.74
2017-02-21T05:36:52.935Z,7.8
2017-02-21T05:38:01.658Z,7.68
2017-02-21T05:39:11.482Z,7.69
2017-02-21T05:40:21.326Z,7.63
2017-02-21T05:41:30.801Z,7.5
2017-02-21T05:42:39.884Z,7.5
2017-02-21T05:43:48.956Z,7.52
2017-02-21T05:44:58.029Z,7.46
2017-02-21T05:46:08.248Z,7.37
2017-02-21T05:47:17.701Z,7.4
2017-02-21T05:48:26.378Z,7.4
2017-02-21T05:49:35.068Z,7.35
2017-02-21T05:50:43.750Z,7.37
2017-02-21T05:51:53.208Z,7.27
2017-02-21T05:53:02.272Z,7.16
2017-02-21T05:54:11.331Z,7.16
2017-02-21T05:55:20.005Z,7.16
2017-02-21T05:56:30.220Z,7.16
2017-02-21T05:57:39.298Z,7.28
2017-02-21T05:58:48.750Z,7.27
2017-02-21T05:59:58.220Z,7.25
2017-02-21T06:01:08.073Z,7.16
2017-02-21T06:02:17.533Z,7.2
2017-02-21T06:03:26.211Z,7.21
2017-02-21T06:04:34.920Z,7.21
2017-02-21T06:05:44.396Z,7.06
2017-02-21T06:06:53.490Z,7.17
2017-02-21T06:08:02.561Z,7.28
2017-02-21T06:09:11.624Z,7.25
2017-02-21T06:10:20.753Z,7.27
2017-02-21T06:11:29.453Z,7.17
2017-02-21T06:12:39.286Z,7.15
2017-02-21T06:13:48.750Z,7.16
2017-02-21T06:14:58.574Z,7.17
2017-02-21T06:16:07.256Z,7.2
2017-02-21T06:17:17.091Z,7.09
2017-02-21T06:18:26.184Z,7.1
2017-02-21T06:19:35.655Z,7.1
2017-02-21T06:20:45.493Z,7.24
2017-02-21T06:21:54.576Z,7.3
2017-02-21T06:23:03.262Z,7.24
2017-02-21T06:24:12.733Z,7.23
2017-02-21T06:25:22.181Z,7.25
2017-02-21T06:26:31.623Z,7.34
2017-02-21T06:27:41.452Z,7.35
2017-02-21T06:28:51.663Z,7.37
2017-02-21T06:30:01.120Z,7.49
2017-02-21T06:31:10.954Z,7.49
2017-02-21T06:32:20.792Z,7.5
2017-02-21T06:33:29.869Z,7.39
2017-02-21T06:34:38.939Z,7.49
2017-02-21T06:35:48.014Z,7.5
2017-02-21T06:36:57.092Z,7.43
2017-02-21T06:38:06.191Z,7.42
2017-02-21T06:39:14.888Z,7.48
2017-02-21T06:40:23.984Z,7.49
2017-02-21T06:41:33.433Z,7.6
2017-02-21T06:42:42.510Z,7.55
2017-02-21T06:43:51.583Z,7.52
2017-02-21T06:45:00.291Z,7.53
2017-02-21T06:46:09.375Z,7.42
2017-02-21T06:47:18.071Z,7.4
2017-02-21T06:48:27.531Z,7.39
2017-02-21T06:49:36.974Z,7.53
2017-02-21T06:50:46.808Z,7.55
2017-02-21T06:51:55.523Z,7.35
2017-02-21T06:53:05.361Z,7.39
2017-02-21T06:54:14.425Z,7.46
2017-02-21T06:55:23.511Z,7.46
2017-02-21T06:56:32.591Z,7.46
2017-02-21T06:57:41.270Z,7.43
2017-02-21T06:58:50.336Z,7.58
2017-02-21T07:00:00.204Z,7.69
2017-02-21T07:01:09.275Z,7.68
2017-02-21T07:02:18.353Z,7.69
2017-02-21T07:03:28.566Z,7.72
2017-02-21T07:04:38.016Z,7.77
2017-02-21T07:05:47.086Z,7.93
2017-02-21T07:06:55.788Z,7.85
2017-02-21T07:08:04.495Z,7.92
2017-02-21T07:09:14.338Z,7.97
2017-02-21T07:10:23.030Z,8.02
2017-02-21T07:11:33.246Z,8
2017-02-21T07:12:43.091Z,8.02
2017-02-21T07:13:52.171Z,8.08
2017-02-21T07:15:00.876Z,8.05
2017-02-21T07:16:09.965Z,8.05
2017-02-21T07:17:19.437Z,8.1
2017-02-21T07:18:29.295Z,8.07
2017-02-21T07:19:39.123Z,8.11
2017-02-21T07:20:48.238Z,8.07
2017-02-21T07:21:57.301Z,8.05
2017-02-21T07:23:06.759Z,8.19
2017-02-21T07:24:15.821Z,8.26
2017-02-21T07:25:25.294Z,8.2
2017-02-21T07:26:34.743Z,8.16
2017-02-21T07:27:43.430Z,8.18
2017-02-21T07:28:52.498Z,8.11
2017-02-21T07:30:01.958Z,8.19
2017-02-21T07:31:11.414Z,8.16
2017-02-21T07:32:20.485Z,8.26
2017-02-21T07:33:29.552Z,8.25
2017-02-21T07:34:38.613Z,8.19
2017-02-21T07:35:47.305Z,8.23
2017-02-21T07:36:56.761Z,8.28
2017-02-21T07:38:05.449Z,8.25
2017-02-21T07:39:14.140Z,8.28
2017-02-21T07:40:23.970Z,8.26
2017-02-21T07:41:34.213Z,8.29
2017-02-21T07:42:42.909Z,8.3
2017-02-21T07:43:52.365Z,8.36
2017-02-21T07:45:01.832Z,8.36
2017-02-21T07:46:10.902Z,8.37
2017-02-21T07:47:20.752Z,8.45
2017-02-21T07:48:30.615Z,8.37
2017-02-21T07:49:40.447Z,8.48
2017-02-21T07:50:50.291Z,8.59
2017-02-21T07:51:59.746Z,8.61
2017-02-21T07:53:09.574Z,8.65
2017-02-21T07:54:18.274Z,8.66
2017-02-21T07:55:27.727Z,8.73
2017-02-21T07:56:37.197Z,8.73
2017-02-21T07:57:47.027Z,8.74
2017-02-21T07:58:56.888Z,8.79
2017-02-21T08:00:07.102Z,8.73
2017-02-21T08:01:15.824Z,8.8
2017-02-21T08:02:26.063Z,8.83
2017-02-21T08:03:36.321Z,8.77
2017-02-21T08:04:45.394Z,8.81
2017-02-21T08:05:55.225Z,8.89
2017-02-21T08:07:04.714Z,8.86
2017-02-21T08:08:14.158Z,8.95
2017-02-21T08:09:22.854Z,8.81
2017-02-21T08:10:31.917Z,8.91
2017-02-21T08:11:40.986Z,8.79
2017-02-21T08:12:49.705Z,8.81
2017-02-21T08:13:58.771Z,8.79
2017-02-21T08:15:08.234Z,8.84
2017-02-21T08:16:17.297Z,8.76
2017-02-21T08:17:26.393Z,8.76
2017-02-21T08:18:35.469Z,8.73
2017-02-21T08:19:44.530Z,8.55
2017-02-21T08:20:53.587Z,8.53
2017-02-21T08:22:02.660Z,8.5
2017-02-21T08:23:11.728Z,8.45
2017-02-21T08:24:21.578Z,8.5
2017-02-21T08:25:31.441Z,8.53
2017-02-21T08:26:40.900Z,8.65
2017-02-21T08:27:49.998Z,8.65
2017-02-21T08:28:59.828Z,8.74
2017-02-21T08:30:09.294Z,8.76
2017-02-21T08:31:18.383Z,8.8
2017-02-21T08:32:27.442Z,8.76
2017-02-21T08:33:36.913Z,8.89
2017-02-21T08:34:46.012Z,8.86
2017-02-21T08:35:55.491Z,8.94
2017-02-21T08:37:05.344Z,9.01
2017-02-21T08:38:14.026Z,8.95
2017-02-21T08:39:22.723Z,9.13
2017-02-21T08:40:31.429Z,9.05
2017-02-21T08:41:40.107Z,9.15
2017-02-21T08:42:49.944Z,9.17
2017-02-21T08:43:59.408Z,9.23
2017-02-21T08:45:08.143Z,9.21
2017-02-21T08:46:17.213Z,9.23
2017-02-21T08:47:27.056Z,9.42
2017-02-21T08:48:36.128Z,9.53
2017-02-21T08:49:45.195Z,9.58
2017-02-21T08:50:55.041Z,9.57
2017-02-21T08:52:04.105Z,9.56
2017-02-21T08:53:13.185Z,9.58
2017-02-21T08:54:22.642Z,9.66
2017-02-21T08:55:32.101Z,9.75
2017-02-21T08:56:42.324Z,9.81
2017-02-21T08:57:51.411Z,9.94
2017-02-21T08:59:00.487Z,10.15
2017-02-21T09:00:09.935Z,10.22
2017-02-21T09:01:19.784Z,10.29
2017-02-21T09:02:29.225Z,10.32
2017-02-21T09:03:38.668Z,10.3
2017-02-21T09:04:47.753Z,10.42
2017-02-21T09:05:56.857Z,10.55
2017-02-21T09:07:05.950Z,10.45
2017-02-21T09:08:15.419Z,10.32
2017-02-21T09:09:24.108Z,10.33
2017-02-21T09:10:33.170Z,10.33
2017-02-21T09:11:42.626Z,10.44
2017-02-21T09:12:52.487Z,10.51
2017-02-21T09:14:01.559Z,10.48
2017-02-21T09:15:11.019Z,10.67
2017-02-21T09:16:20.089Z,10.67
2017-02-21T09:17:29.886Z,10.78
2017-02-21T09:18:38.968Z,10.86
2017-02-21T09:19:48.422Z,10.97
2017-02-21T09:20:57.522Z,11.03
2017-02-21T09:22:06.607Z,11.21
2017-02-21T09:23:15.302Z,11.15
2017-02-21T09:24:24.001Z,11.19
2017-02-21T09:25:32.689Z,11.28
2017-02-21T09:26:41.446Z,11.15
2017-02-21T09:27:50.535Z,11.18
2017-02-21T09:28:59.610Z,11.14
2017-02-21T09:30:08.692Z,11.09
2017-02-21T09:31:17.796Z,11.07
2017-02-21T09:32:26.510Z,10.91
2017-02-21T09:33:35.205Z,10.84
2017-02-21T09:34:45.049Z,10.84
2017-02-21T09:35:54.918Z,10.67
2017-02-21T09:37:03.987Z,10.67
2017-02-21T09:38:13.462Z,10.64
2017-02-21T09:39:22.178Z,10.68
2017-02-21T09:40:32.050Z,10.63
2017-02-21T09:41:41.204Z,10.76
2017-02-21T09:42:50.299Z,10.63
2017-02-21T09:43:58.992Z,10.59
2017-02-21T09:45:08.446Z,10.56
2017-02-21T09:46:17.962Z,10.66
2017-02-21T09:47:26.674Z,10.67
2017-02-21T09:48:35.751Z,10.76
2017-02-21T09:49:44.821Z,10.82
2017-02-21T09:50:54.652Z,10.86
2017-02-21T09:52:04.102Z,10.81
2017-02-21T09:53:13.179Z,10.66
2017-02-21T09:54:22.636Z,10.61
2017-02-21T09:55:32.499Z,10.67
2017-02-21T09:56:42.051Z,10.84
2017-02-21T09:57:51.000Z,10.79
2017-02-21T09:59:00.843Z,10.81
2017-02-21T10:00:10.303Z,10.73
2017-02-21T10:01:19.752Z,10.71
2017-02-21T10:02:29.200Z,10.59
2017-02-21T10:03:39.038Z,10.53
2017-02-21T10:04:48.123Z,10.59
2017-02-21T10:05:57.210Z,10.6
2017-02-21T10:07:06.667Z,10.53
2017-02-21T10:08:15.736Z,10.55
2017-02-21T10:09:25.208Z,10.56
2017-02-21T10:10:34.288Z,10.45
2017-02-21T10:11:43.351Z,10.45
2017-02-21T10:12:52.841Z,10.44
2017-02-21T10:14:02.309Z,10.56
2017-02-21T10:15:11.776Z,10.59
2017-02-21T10:16:20.853Z,10.56
2017-02-21T10:17:30.315Z,10.61
2017-02-21T10:18:39.403Z,10.64
2017-02-21T10:19:49.614Z,10.81
2017-02-21T10:20:59.086Z,10.76
2017-02-21T10:22:09.308Z,10.78
2017-02-21T10:23:19.155Z,10.73
2017-02-21T10:24:29.000Z,10.86
2017-02-21T10:25:38.461Z,10.82
2017-02-21T10:26:48.309Z,10.82
2017-02-21T10:27:58.179Z,10.84
2017-02-21T10:29:06.886Z,10.92
2017-02-21T10:30:15.966Z,11.06
2017-02-21T10:31:25.839Z,11.28
2017-02-21T10:32:35.288Z,11.39
2017-02-21T10:33:45.145Z,11.61
2017-02-21T10:34:54.599Z,11.75
2017-02-21T10:36:04.075Z,11.96
2017-02-21T10:37:13.144Z,12.01
2017-02-21T10:38:22.229Z,12.16
2017-02-21T10:39:31.712Z,12.41
2017-02-21T10:40:40.417Z,12.54
2017-02-21T10:41:49.499Z,12.56
2017-02-21T10:42:58.585Z,12.79
2017-02-21T10:44:08.427Z,12.68
2017-02-21T10:45:17.877Z,12.9
2017-02-21T10:46:26.978Z,13.1
2017-02-21T10:47:36.446Z,13.19
2017-02-21T10:48:46.290Z,13.26
2017-02-21T10:49:54.981Z,13.54
2017-02-21T10:51:04.468Z,13.48
2017-02-21T10:52:14.305Z,13.38
2017-02-21T10:53:23.777Z,13.46
2017-02-21T10:54:32.469Z,13.62
2017-02-21T10:55:42.325Z,13.87
2017-02-21T10:56:51.393Z,13.6
2017-02-21T10:58:00.863Z,13.38
2017-02-21T10:59:10.325Z,13.66
2017-02-21T11:00:19.778Z,13.81
2017-02-21T11:01:28.466Z,13.95
2017-02-21T11:02:38.314Z,13.66
2017-02-21T11:03:47.794Z,13.2
2017-02-21T11:04:56.501Z,12.96
2017-02-21T11:06:05.970Z,13.08
2017-02-21T11:07:15.036Z,12.83
2017-02-21T11:08:24.901Z,12.75
2017-02-21T11:09:34.006Z,12.64
2017-02-21T11:10:42.687Z,12.49
2017-02-21T11:11:52.153Z,12.24
2017-02-21T11:13:01.228Z,12.07
2017-02-21T11:14:11.062Z,11.86
2017-02-21T11:15:20.149Z,11.72
2017-02-21T11:16:28.846Z,11.69
2017-02-21T11:17:37.530Z,11.54
2017-02-21T11:18:46.637Z,11.39
2017-02-21T11:19:56.495Z,11.4
2017-02-21T11:21:06.362Z,11.33
2017-02-21T11:22:15.837Z,11.35
2017-02-21T11:23:25.669Z,11.25
2017-02-21T11:24:35.504Z,11.25
2017-02-21T11:25:44.579Z,11.28
2017-02-21T11:26:53.653Z,11.15
2017-02-21T11:28:03.497Z,11.27
2017-02-21T11:29:12.952Z,11.22
2017-02-21T11:30:22.047Z,11.14
2017-02-21T11:31:31.135Z,11.14
2017-02-21T11:32:39.814Z,11.11
2017-02-21T11:33:50.047Z,11.11
2017-02-21T11:34:59.892Z,11.17
2017-02-21T11:36:09.370Z,11.42
2017-02-21T11:37:18.102Z,11.57
2017-02-21T11:38:27.936Z,11.61
2017-02-21T11:39:37.390Z,11.75
2017-02-21T11:40:46.849Z,11.64
2017-02-21T11:41:55.548Z,11.55
2017-02-21T11:43:05.379Z,11.44
2017-02-21T11:44:14.091Z,11.36
2017-02-21T11:45:23.939Z,11.22
2017-02-21T11:46:33.383Z,11.14
2017-02-21T11:47:42.473Z,11.17
2017-02-21T11:48:51.943Z,11.09
2017-02-21T11:50:01.034Z,11.14
2017-02-21T11:51:10.511Z,11.17
2017-02-21T11:52:19.600Z,11.17
2017-02-21T11:53:29.064Z,11.4
2017-02-21T11:54:38.157Z,11.51
2017-02-21T11:55:47.613Z,11.47
2017-02-21T11:56:56.294Z,11.35
2017-02-21T11:58:05.766Z,11.42
2017-02-21T11:59:14.454Z,11.58
2017-02-21T12:00:24.298Z,11.6
2017-02-21T12:01:34.157Z,11.52
2017-02-21T12:02:43.635Z,11.47
2017-02-21T12:03:52.701Z,11.4
2017-02-21T12:05:02.174Z,11.39
2017-02-21T12:06:11.636Z,11.37
2017-02-21T12:07:20.708Z,11.35
2017-02-21T12:08:30.182Z,11.32
2017-02-21T12:09:38.908Z,11.36
2017-02-21T12:10:47.621Z,11.39
2017-02-21T12:11:57.468Z,11.47
2017-02-21T12:13:06.156Z,11.64
2017-02-21T12:14:15.219Z,11.61
2017-02-21T12:15:25.068Z,11.69
2017-02-21T12:16:34.254Z,11.73
2017-02-21T12:17:44.163Z,11.67
2017-02-21T12:18:52.882Z,11.75
2017-02-21T12:20:02.742Z,11.9
2017-02-21T12:21:11.816Z,11.99
2017-02-21T12:22:20.495Z,12.02
2017-02-21T12:23:29.578Z,11.98
2017-02-21T12:24:39.054Z,12.01
2017-02-21T12:25:48.154Z,12.01
2017-02-21T12:26:57.998Z,11.95
2017-02-21T12:28:07.451Z,11.86
2017-02-21T12:29:16.896Z,11.99
2017-02-21T12:30:26.365Z,12.12
2017-02-21T12:31:36.592Z,12.16
2017-02-21T12:32:46.064Z,12.21
2017-02-21T12:33:55.552Z,12.12
2017-02-21T12:35:05.018Z,12.04
2017-02-21T12:36:14.103Z,12.05
2017-02-21T12:37:23.588Z,11.94
2017-02-21T12:38:33.040Z,12.05
2017-02-21T12:39:42.105Z,12.13
2017-02-21T12:40:50.796Z,12.27
2017-02-21T12:42:00.642Z,12.49
2017-02-21T12:43:10.115Z,12.53
2017-02-21T12:44:19.188Z,12.42
2017-02-21T12:45:29.039Z,12.52
2017-02-21T12:46:38.877Z,12.42
2017-02-21T12:47:47.945Z,12.24
2017-02-21T12:48:57.028Z,12.1
2017-02-21T12:50:06.492Z,12.21
2017-02-21T12:51:15.962Z,12.47
2017-02-21T12:52:25.424Z,12.53
2017-02-21T12:53:34.884Z,12.53
2017-02-21T12:54:43.963Z,12.54
2017-02-21T12:55:53.067Z,12.53
2017-02-21T12:57:02.908Z,12.42
2017-02-21T12:58:12.380Z,12.35
2017-02-21T12:59:21.866Z,12.32
2017-02-21T13:00:31.333Z,12.37
2017-02-21T13:01:41.187Z,12.53
2017-02-21T13:02:50.663Z,12.46
2017-02-21T13:04:00.115Z,12.32
2017-02-21T13:05:09.583Z,12.09
2017-02-21T13:06:18.272Z,11.86
2017-02-21T13:07:28.502Z,11.9
2017-02-21T13:08:37.606Z,11.99
2017-02-21T13:09:46.715Z,12.13
2017-02-21T13:10:56.179Z,12.12
2017-02-21T13:12:06.796Z,12.09
2017-02-21T13:13:16.266Z,11.9
2017-02-21T13:14:24.992Z,11.91
2017-02-21T13:15:34.453Z,12.02
2017-02-21T13:16:43.531Z,12.21
2017-02-21T13:17:53.395Z,12.17
2017-02-21T13:19:02.100Z,12.27
2017-02-21T13:20:11.175Z,12.29
2017-02-21T13:21:19.863Z,12.28
2017-02-21T13:22:29.317Z,12.23
2017-02-21T13:23:38.381Z,12.23
2017-02-21T13:24:47.827Z,12.23
2017-02-21T13:25:57.296Z,12.29
2017-02-21T13:27:06.767Z,12.29
2017-02-21T13:28:15.841Z,12.46
2017-02-21T13:29:24.907Z,12.52
2017-02-21T13:30:34.019Z,12.53
2017-02-21T13:31:42.716Z,12.41
2017-02-21T13:32:52.583Z,12.56
2017-02-21T13:34:02.452Z,12.56
2017-02-21T13:35:11.902Z,12.46
2017-02-21T13:36:20.597Z,12.13
2017-02-21T13:37:29.671Z,12.04
2017-02-21T13:38:39.120Z,11.95
2017-02-21T13:39:48.978Z,11.99
2017-02-21T13:40:58.805Z,11.99
2017-02-21T13:42:08.652Z,11.99
2017-02-21T13:43:17.714Z,12.05
2017-02-21T13:44:27.181Z,11.98
2017-02-21T13:45:35.870Z,11.91
2017-02-21T13:46:44.564Z,11.88
2017-02-21T13:47:53.646Z,11.88
2017-02-21T13:49:02.733Z,11.75
2017-02-21T13:50:11.803Z,11.61
2017-02-21T13:51:20.503Z,11.67
2017-02-21T13:52:29.602Z,11.73
2017-02-21T13:53:38.292Z,11.72
2017-02-21T13:54:48.141Z,11.85
2017-02-21T13:55:57.608Z,11.75
2017-02-21T13:57:07.055Z,11.54
2017-02-21T13:58:16.520Z,11.43
2017-02-21T13:59:25.580Z,11.46
2017-02-21T14:00:35.084Z,11.44
2017-02-21T14:01:44.487Z,11.52
2017-02-21T14:04:02.880Z,11.57
2017-02-21T14:05:12.396Z,11.6
2017-02-21T14:06:22.619Z,11.6
2017-02-21T14:07:32.087Z,11.88
2017-02-21T14:08:40.767Z,11.99
2017-02-21T14:09:50.247Z,12.09
2017-02-21T14:10:59.314Z,12.05
2017-02-21T14:12:08.775Z,11.94
2017-02-21T14:13:18.214Z,11.96
2017-02-21T14:14:26.894Z,12.04
2017-02-21T14:15:35.586Z,12.05
2017-02-21T14:16:44.643Z,12.12
2017-02-21T14:17:53.700Z,12.23
2017-02-21T14:19:03.154Z,12.29
2017-02-21T14:20:12.618Z,12.32
2017-02-21T14:21:21.690Z,12.49
2017-02-21T14:22:31.141Z,12.38
2017-02-21T14:23:40.603Z,12.49
2017-02-21T14:24:50.429Z,12.47
2017-02-21T14:25:59.873Z,12.53
2017-02-21T14:27:09.339Z,12.53
2017-02-21T14:28:18.826Z,12.42
2017-02-21T14:29:28.666Z,12.34
2017-02-21T14:30:37.737Z,12.37
2017-02-21T14:31:47.596Z,12.2
2017-02-21T14:32:56.674Z,12.19
2017-02-21T14:34:06.141Z,12.12
2017-02-21T14:35:15.613Z,12.07
2017-02-21T14:36:25.083Z,11.9
2017-02-21T14:37:34.542Z,11.85
2017-02-21T14:38:44.389Z,11.99
2017-02-21T14:39:53.868Z,11.82
2017-02-21T14:41:02.557Z,11.83
2017-02-21T14:42:12.003Z,11.78
2017-02-21T14:43:20.702Z,11.79
2017-02-21T14:44:30.534Z,11.8
2017-02-21T14:45:39.599Z,11.9
2017-02-21T14:46:48.672Z,11.85
2017-02-21T14:47:58.130Z,11.9
2017-02-21T14:49:06.832Z,11.78
2017-02-21T14:50:15.902Z,11.82
2017-02-21T14:51:25.361Z,11.73
2017-02-21T14:52:34.441Z,11.83
2017-02-21T14:53:43.910Z,11.88
2017-02-21T14:54:53.755Z,11.76
2017-02-21T14:56:02.467Z,11.9
2017-02-21T14:57:11.554Z,11.9
2017-02-21T14:58:21.001Z,11.94
2017-02-21T14:59:30.464Z,11.94
2017-02-21T15:00:40.292Z,11.88
2017-02-21T15:01:49.750Z,11.99
2017-02-21T15:02:59.194Z,11.94
2017-02-21T15:04:08.666Z,12.02
2017-02-21T15:05:17.355Z,11.98
2017-02-21T15:06:26.460Z,11.96
2017-02-21T15:07:35.924Z,11.99
2017-02-21T15:08:45.369Z,11.85
2017-02-21T15:09:54.425Z,11.88
2017-02-21T15:11:04.273Z,11.95